Flight Track Log - Related Links

Times and Time Zones

All times are in EDT time to prevent confusion due to time zone crossing. See the EJA941 flight status page for this flight to view local times or setup timezone preferences in your user account.

Time Position Orientation Groundspeed Altitude Reporting Facility
EDT Latitude Longitude Course Direction KTS MPH feet Rate Location/Type
Wed 10:20:39 AM 40.8667 -74.0500 252° West 176 203 1,600  Level New York TRACON
Wed 10:21:39 AM 40.9167 -74.0500 360° North 227 261 3,300 1,950 Climbing New York TRACON
Wed 10:22:39 AM 40.9167 -74.1500 270° West 296 341 5,500 3,200 Climbing New York TRACON
Wed 10:23:39 AM 40.9000 -74.2667 259° West 297 342 9,700 3,136 Climbing New York TRACON
Wed 10:24:51 AM 40.8872 -74.3997 263° West 312 359 12,400 1,955 Climbing New York Center
Wed 10:25:51 AM 40.8725 -74.5333 262° West 351 404 14,000 1,700 Climbing New York Center
Wed 10:26:00 AM 40.7790 -74.8741 252° West  Level Estimated
Wed 10:26:51 AM 40.8553 -74.6778 261° West 392 451 15,800  Level New York Center
Wed 10:27:51 AM 40.8317 -74.8192 258° West 404 465 17,400 1,550 Climbing New York Center
Wed 10:28:51 AM 40.7914 -74.9647 250° West 414 476 18,900 1,550 Climbing New York Center
Wed 10:29:51 AM 40.7533 -75.0911 248° West 419 482 20,500 1,750 Climbing New York Center
Wed 10:30:51 AM 40.7125 -75.2364 250° West 425 489 22,400 1,900 Climbing New York Center
Wed 10:31:51 AM 40.6714 -75.3869 250° West 425 489 24,300 1,700 Climbing New York Center
Wed 10:32:51 AM 40.6278 -75.5397 249° West 436 502 25,800 800 Climbing New York Center
Wed 10:33:51 AM 40.5814 -75.7033 250° West 457 526 25,900 100 Climbing New York Center
Wed 10:34:51 AM 40.5306 -75.8717 248° West 479 551 26,000 50 Climbing New York Center
Wed 10:35:51 AM 40.4722 -76.0583 248° West 506 582 26,000  Level New York Center
Wed 10:36:51 AM 40.4231 -76.2264 249° West 506 582 26,000  Level New York Center
Wed 10:37:51 AM 40.3711 -76.3967 248° West 506 582 26,000  Level New York Center
Wed 10:38:51 AM 40.3153 -76.5636 246° West 500 575 26,000  Level New York Center
Wed 10:39:51 AM 40.2533 -76.7192 242° Southwest 495 570 26,000  Level New York Center
Wed 10:40:51 AM 40.2111 -76.8922 252° West 495 570 26,000  Level New York Center
Wed 10:41:51 AM 40.1728 -77.0681 254° West 495 570 26,000  Level New York Center
Wed 10:42:51 AM 40.1339 -77.2467 254° West 506 582 26,000  Level New York Center
Wed 10:43:51 AM 40.0950 -77.4194 254° West 506 582 26,000 -806 Level New York Center
Wed 10:45:57 AM 40.0161 -77.7606 253° West 509 586 23,500 -1,277 Descending Cleveland Center
Wed 10:46:59 AM 39.9794 -77.9633 257° West 490 564 22,000 -1,016 Descending Cleveland Center
Wed 10:48:01 AM 40.0083 -78.1303 283° West 476 548 21,400 -1,306 Descending Cleveland Center
Wed 10:49:03 AM 40.0442 -78.2972 286° West 474 545 19,300 -2,259 Descending Cleveland Center
Wed 10:49:26 AM 40.0589 -78.3733 284° West 460 529 18,200 -1,935 Descending Cleveland Center
Wed 10:50:05 AM 40.0775 -78.4547 287° West 460 529 17,300 -1,875 Descending Cleveland Center
Wed 10:50:14 AM 40.0856 -78.4886 287° West 449 517 16,700 -3,771 Descending Cleveland Center
Wed 10:51:15 AM 40.1203 -78.6597 285° West 449 517 12,900 -3,052 Descending Cleveland Center
Wed 10:52:10 AM 40.1425 -78.7619 286° West 438 504 10,800 -2,500 Descending Cleveland Center
Wed 10:52:15 AM 40.1511 -78.8003 286° West 389 448 10,400 -1,645 Descending Cleveland Center
Wed 10:53:12 AM 40.1733 -78.9019 286° West 355 409 9,100 -1,475 Descending Cleveland Center
Wed 10:53:16 AM 40.1756 -78.9131 285° West 294 338 8,900 -1,839 Descending Cleveland Center
Wed 10:54:14 AM 40.1950 -79.0075 285° West 315 362 7,200 -1,869 Descending Cleveland Center
Wed 10:54:17 AM 40.1964 -79.0169 281° West 281 323 7,000 -1,935 Descending Cleveland Center
Wed 10:55:16 AM 40.2156 -79.1083 285° West 302 348 5,200 -1,240 Descending Cleveland Center
Wed 10:56:18 AM 40.2356 -79.2083 285° West 294 338 4,500 -362 Descending Cleveland Center
Wed 10:57:12 AM 40.2292 -79.3033 265° West 249 287 4,500  Level Cleveland Center
Wed 10:57:20 AM 40.2317 -79.2967 64° Northeast 268 308 4,500 -98 Level Cleveland Center
Wed 10:58:13 AM 40.2081 -79.3797 250° West 215 247 4,400 -97 Descending Cleveland Center
Wed 10:58:22 AM 40.2131 -79.3806 353° North 238 274 4,400 -1,279 Level Cleveland Center
Wed 10:59:14 AM 40.2094 -79.4347 265° West 152 175 3,100 -1,645 Descending Cleveland Center
Wed 10:59:24 AM 40.2175 -79.4461 313° West 158 182 2,700 -1,167 Descending Cleveland Center
Wed 11:00:26 AM 40.2506 -79.4444 North 150 173 1,700 -581 Descending Cleveland Center
Wed 11:01:28 AM 40.2719 -79.4119 49° Northeast 141 162 1,500 -194 Descending Cleveland Center
Wed 11:03:00 AM 40.2667 -79.4000 294° West  Level FlightAware Approximate
Wed 11:10:00 AM 40.2746 -79.4068 294° West  Level Estimated

Login

Don't have an account? Register now (free) for customized features, flight alerts, and more!